sensor_id;sensor_type;location;lat;lon;timestamp;pressure;altitude;pressure_sealevel;temperature;humidity
18264;BME280;9258;48.668;9.172;2022-08-19T00:02:16;96173.66;;;21.59;89.99
18264;BME280;9258;48.668;9.172;2022-08-19T00:05:18;96161.28;;;21.54;90.29
18264;BME280;9258;48.668;9.172;2022-08-19T00:08:20;96160.19;;;21.55;90.24
18264;BME280;9258;48.668;9.172;2022-08-19T00:11:23;96171.13;;;21.54;90.72
18264;BME280;9258;48.668;9.172;2022-08-19T00:14:28;96178.63;;;21.52;91.16
18264;BME280;9258;48.668;9.172;2022-08-19T00:17:31;96178.31;;;21.45;92.84
18264;BME280;9258;48.668;9.172;2022-08-19T00:20:33;96177.00;;;21.34;94.83
18264;BME280;9258;48.668;9.172;2022-08-19T00:23:34;96171.31;;;21.27;96.22
18264;BME280;9258;48.668;9.172;2022-08-19T00:26:38;96169.59;;;21.22;97.60
18264;BME280;9258;48.668;9.172;2022-08-19T00:29:40;96165.44;;;21.16;98.92
18264;BME280;9258;48.668;9.172;2022-08-19T00:32:41;96157.47;;;21.16;98.95
18264;BME280;9258;48.668;9.172;2022-08-19T00:35:43;96140.09;;;21.10;100.00
18264;BME280;9258;48.668;9.172;2022-08-19T00:38:44;96135.88;;;21.09;100.00
18264;BME280;9258;48.668;9.172;2022-08-19T00:41:50;96145.19;;;20.98;100.00
18264;BME280;9258;48.668;9.172;2022-08-19T00:44:52;96140.44;;;20.86;100.00
18264;BME280;9258;48.668;9.172;2022-08-19T00:47:54;96145.00;;;20.94;100.00
18264;BME280;9258;48.668;9.172;2022-08-19T00:50:55;96153.56;;;20.91;100.00
18264;BME280;9258;48.668;9.172;2022-08-19T00:53:57;96161.22;;;20.84;100.00
18264;BME280;9258;48.668;9.172;2022-08-19T00:57:05;96161.94;;;20.76;100.00
18264;BME280;9258;48.668;9.172;2022-08-19T01:00:11;96162.41;;;20.78;100.00
18264;BME280;9258;48.668;9.172;2022-08-19T01:03:16;96158.84;;;20.82;100.00
18264;BME280;9258;48.668;9.172;2022-08-19T01:06:18;96159.28;;;20.76;100.00
18264;BME280;9258;48.668;9.172;2022-08-19T01:09:19;96160.66;;;20.73;100.00
18264;BME280;9258;48.668;9.172;2022-08-19T01:12:22;96154.75;;;20.76;100.00
18264;BME280;9258;48.668;9.172;2022-08-19T01:15:27;96148.88;;;20.66;100.00
18264;BME280;9258;48.668;9.172;2022-08-19T01:18:30;96152.28;;;20.58;100.00
18264;BME280;9258;48.668;9.172;2022-08-19T01:21:36;96151.91;;;20.51;100.00
18264;BME280;9258;48.668;9.172;2022-08-19T01:24:43;96154.88;;;20.49;100.00
18264;BME280;9258;48.668;9.172;2022-08-19T01:27:48;96146.84;;;20.40;100.00
18264;BME280;9258;48.668;9.172;2022-08-19T01:30:50;96143.69;;;20.38;100.00
18264;BME280;9258;48.668;9.172;2022-08-19T01:33:54;96146.56;;;20.28;100.00
18264;BME280;9258;48.668;9.172;2022-08-19T01:36:56;96144.19;;;20.27;100.00
18264;BME280;9258;48.668;9.172;2022-08-19T01:39:58;96140.84;;;20.21;100.00
18264;BME280;9258;48.668;9.172;2022-08-19T01:43:01;96135.34;;;20.18;100.00
18264;BME280;9258;48.668;9.172;2022-08-19T01:46:04;96136.75;;;20.15;100.00
18264;BME280;9258;48.668;9.172;2022-08-19T01:49:06;96134.09;;;20.15;100.00
18264;BME280;9258;48.668;9.172;2022-08-19T01:52:08;96139.78;;;20.22;100.00
18264;BME280;9258;48.668;9.172;2022-08-19T01:55:13;96141.06;;;20.25;100.00
18264;BME280;9258;48.668;9.172;2022-08-19T01:58:19;96153.63;;;20.19;100.00
18264;BME280;9258;48.668;9.172;2022-08-19T02:01:22;96145.88;;;20.23;100.00
18264;BME280;9258;48.668;9.172;2022-08-19T02:04:23;96142.53;;;20.17;100.00
18264;BME280;9258;48.668;9.172;2022-08-19T02:07:25;96144.09;;;20.18;100.00
18264;BME280;9258;48.668;9.172;2022-08-19T02:10:29;96138.00;;;20.18;100.00
18264;BME280;9258;48.668;9.172;2022-08-19T02:13:32;96136.44;;;20.17;100.00
18264;BME280;9258;48.668;9.172;2022-08-19T02:16:35;96136.75;;;20.15;100.00
18264;BME280;9258;48.668;9.172;2022-08-19T02:19:36;96144.72;;;20.15;100.00
18264;BME280;9258;48.668;9.172;2022-08-19T02:22:38;96143.94;;;20.14;100.00
18264;BME280;9258;48.668;9.172;2022-08-19T02:25:45;96143.25;;;20.09;100.00
18264;BME280;9258;48.668;9.172;2022-08-19T02:28:47;96142.94;;;20.10;100.00
18264;BME280;9258;48.668;9.172;2022-08-19T02:31:49;96148.84;;;20.07;100.00
18264;BME280;9258;48.668;9.172;2022-08-19T02:34:50;96139.59;;;20.05;100.00
18264;BME280;9258;48.668;9.172;2022-08-19T02:37:52;96135.00;;;20.10;100.00
18264;BME280;9258;48.668;9.172;2022-08-19T02:41:18;96134.19;;;20.10;100.00
18264;BME280;9258;48.668;9.172;2022-08-19T02:44:20;96133.41;;;20.09;100.00
18264;BME280;9258;48.668;9.172;2022-08-19T02:47:21;96126.97;;;20.02;100.00
18264;BME280;9258;48.668;9.172;2022-08-19T02:50:23;96124.47;;;20.05;100.00
18264;BME280;9258;48.668;9.172;2022-08-19T02:53:26;96119.94;;;20.06;100.00
18264;BME280;9258;48.668;9.172;2022-08-19T02:56:29;96119.34;;;20.09;100.00
18264;BME280;9258;48.668;9.172;2022-08-19T02:59:32;96123.28;;;20.11;100.00
18264;BME280;9258;48.668;9.172;2022-08-19T03:02:33;96124.84;;;20.12;100.00
18264;BME280;9258;48.668;9.172;2022-08-19T03:05:35;96136.84;;;20.10;100.00
18264;BME280;9258;48.668;9.172;2022-08-19T03:08:37;96137.06;;;20.13;100.00
18264;BME280;9258;48.668;9.172;2022-08-19T03:11:40;96146.09;;;20.12;100.00
18264;BME280;9258;48.668;9.172;2022-08-19T03:14:42;96146.69;;;20.09;100.00
18264;BME280;9258;48.668;9.172;2022-08-19T03:17:44;96145.13;;;20.08;100.00
18264;BME280;9258;48.668;9.172;2022-08-19T03:20:48;96145.91;;;20.09;100.00
18264;BME280;9258;48.668;9.172;2022-08-19T03:23:50;96145.03;;;20.13;100.00
18264;BME280;9258;48.668;9.172;2022-08-19T03:26:54;96139.41;;;20.15;100.00
18264;BME280;9258;48.668;9.172;2022-08-19T03:29:58;96138.91;;;20.13;100.00
18264;BME280;9258;48.668;9.172;2022-08-19T03:33:00;96138.34;;;20.16;100.00
18264;BME280;9258;48.668;9.172;2022-08-19T03:36:05;96140.50;;;20.14;100.00
18264;BME280;9258;48.668;9.172;2022-08-19T03:39:09;96144.72;;;20.15;100.00
18264;BME280;9258;48.668;9.172;2022-08-19T03:42:12;96142.16;;;20.10;100.00
18264;BME280;9258;48.668;9.172;2022-08-19T03:45:17;96136.84;;;20.10;100.00
18264;BME280;9258;48.668;9.172;2022-08-19T03:48:19;96138.44;;;20.11;100.00
18264;BME280;9258;48.668;9.172;2022-08-19T03:51:23;96140.00;;;20.12;100.00
18264;BME280;9258;48.668;9.172;2022-08-19T03:54:26;96147.97;;;20.12;100.00
18264;BME280;9258;48.668;9.172;2022-08-19T03:57:29;96150.22;;;20.05;100.00
18264;BME280;9258;48.668;9.172;2022-08-19T04:00:31;96153.38;;;20.07;100.00
18264;BME280;9258;48.668;9.172;2022-08-19T04:03:33;96159.31;;;20.04;100.00
18264;BME280;9258;48.668;9.172;2022-08-19T04:06:37;96159.41;;;19.99;100.00
18264;BME280;9258;48.668;9.172;2022-08-19T04:09:39;96153.31;;;19.98;100.00
18264;BME280;9258;48.668;9.172;2022-08-19T04:12:42;96149.84;;;19.98;100.00
18264;BME280;9258;48.668;9.172;2022-08-19T04:15:44;96151.94;;;20.01;100.00
18264;BME280;9258;48.668;9.172;2022-08-19T04:18:47;96138.16;;;19.99;100.00
18264;BME280;9258;48.668;9.172;2022-08-19T04:21:51;96147.69;;;20.00;100.00
18264;BME280;9258;48.668;9.172;2022-08-19T04:24:53;96147.69;;;20.00;100.00
18264;BME280;9258;48.668;9.172;2022-08-19T04:27:56;96142.00;;;19.93;100.00
18264;BME280;9258;48.668;9.172;2022-08-19T04:30:57;96139.25;;;19.98;100.00
18264;BME280;9258;48.668;9.172;2022-08-19T04:33:59;96141.19;;;20.06;100.00
18264;BME280;9258;48.668;9.172;2022-08-19T04:37:05;96144.75;;;20.01;100.00
18264;BME280;9258;48.668;9.172;2022-08-19T04:40:13;96148.97;;;20.02;100.00
18264;BME280;9258;48.668;9.172;2022-08-19T04:43:35;96149.06;;;19.97;100.00
18264;BME280;9258;48.668;9.172;2022-08-19T04:46:38;96144.56;;;19.98;100.00
18264;BME280;9258;48.668;9.172;2022-08-19T04:49:40;96145.53;;;20.02;100.00
18264;BME280;9258;48.668;9.172;2022-08-19T04:52:42;96139.16;;;20.03;100.00
18264;BME280;9258;48.668;9.172;2022-08-19T04:55:43;96145.41;;;20.07;100.00
18264;BME280;9258;48.668;9.172;2022-08-19T04:58:47;96147.09;;;20.03;100.00
18264;BME280;9258;48.668;9.172;2022-08-19T05:01:48;96155.16;;;20.11;100.00
18264;BME280;9258;48.668;9.172;2022-08-19T05:04:50;96157.50;;;20.13;100.00
18264;BME280;9258;48.668;9.172;2022-08-19T05:07:52;96166.28;;;20.00;100.00
18264;BME280;9258;48.668;9.172;2022-08-19T05:10:54;96162.53;;;20.01;100.00
18264;BME280;9258;48.668;9.172;2022-08-19T05:13:58;96179.81;;;20.12;100.00
18264;BME280;9258;48.668;9.172;2022-08-19T05:17:00;96192.50;;;20.15;100.00
18264;BME280;9258;48.668;9.172;2022-08-19T05:20:03;96207.47;;;20.11;100.00
18264;BME280;9258;48.668;9.172;2022-08-19T05:23:22;96220.94;;;20.14;100.00
18264;BME280;9258;48.668;9.172;2022-08-19T05:26:23;96222.19;;;20.17;100.00
18264;BME280;9258;48.668;9.172;2022-08-19T05:29:27;96225.63;;;20.18;100.00
18264;BME280;9258;48.668;9.172;2022-08-19T05:32:29;96242.75;;;20.25;100.00
18264;BME280;9258;48.668;9.172;2022-08-19T05:35:30;96247.66;;;20.18;100.00
18264;BME280;9258;48.668;9.172;2022-08-19T05:38:32;96246.56;;;20.19;100.00
18264;BME280;9258;48.668;9.172;2022-08-19T05:41:33;96246.00;;;20.22;100.00
18264;BME280;9258;48.668;9.172;2022-08-19T05:44:39;96235.47;;;20.17;100.00
18264;BME280;9258;48.668;9.172;2022-08-19T05:47:44;96234.88;;;20.20;100.00
18264;BME280;9258;48.668;9.172;2022-08-19T05:50:46;96234.28;;;20.23;100.00
18264;BME280;9258;48.668;9.172;2022-08-19T05:53:50;96236.44;;;20.21;100.00
18264;BME280;9258;48.668;9.172;2022-08-19T05:56:52;96239.31;;;20.25;100.00
18264;BME280;9258;48.668;9.172;2022-08-19T05:59:55;96244.50;;;20.30;100.00
18264;BME280;9258;48.668;9.172;2022-08-19T06:02:57;96243.41;;;20.31;100.00
18264;BME280;9258;48.668;9.172;2022-08-19T06:06:03;96242.25;;;20.37;100.00
18264;BME280;9258;48.668;9.172;2022-08-19T06:09:06;96244.41;;;20.35;100.00
18264;BME280;9258;48.668;9.172;2022-08-19T06:12:10;96246.50;;;20.38;100.00
18264;BME280;9258;48.668;9.172;2022-08-19T06:15:13;96237.50;;;20.47;100.00
18264;BME280;9258;48.668;9.172;2022-08-19T06:18:15;96244.91;;;20.51;100.00
18264;BME280;9258;48.668;9.172;2022-08-19T06:21:18;96239.88;;;20.49;100.00
18264;BME280;9258;48.668;9.172;2022-08-19T06:24:22;96244.69;;;20.47;100.00
18264;BME280;9258;48.668;9.172;2022-08-19T06:27:24;96250.22;;;20.51;100.00
18264;BME280;9258;48.668;9.172;2022-08-19T06:30:27;96251.69;;;20.43;100.00
18264;BME280;9258;48.668;9.172;2022-08-19T06:33:29;96248.63;;;20.49;100.00
18264;BME280;9258;48.668;9.172;2022-08-19T06:36:33;96247.66;;;20.45;100.00
18264;BME280;9258;48.668;9.172;2022-08-19T06:39:37;96251.97;;;20.41;100.00
18264;BME280;9258;48.668;9.172;2022-08-19T06:42:39;96250.50;;;20.49;100.00
18264;BME280;9258;48.668;9.172;2022-08-19T06:45:42;96247.16;;;20.43;100.00
18264;BME280;9258;48.668;9.172;2022-08-19T06:48:44;96243.41;;;20.44;100.00
18264;BME280;9258;48.668;9.172;2022-08-19T06:51:47;96253.25;;;20.44;100.00
18264;BME280;9258;48.668;9.172;2022-08-19T06:54:49;96250.22;;;20.51;100.00
18264;BME280;9258;48.668;9.172;2022-08-19T06:57:50;96254.63;;;20.41;100.00
18264;BME280;9258;48.668;9.172;2022-08-19T07:00:54;96262.31;;;20.43;100.00
18264;BME280;9258;48.668;9.172;2022-08-19T07:03:57;96269.50;;;20.42;100.00
18264;BME280;9258;48.668;9.172;2022-08-19T07:07:05;96266.25;;;20.45;100.00
18264;BME280;9258;48.668;9.172;2022-08-19T07:10:08;96264.44;;;20.55;100.00
18264;BME280;9258;48.668;9.172;2022-08-19T07:13:10;96256.59;;;20.49;100.00
18264;BME280;9258;48.668;9.172;2022-08-19T07:16:15;96256.59;;;20.49;100.00
18264;BME280;9258;48.668;9.172;2022-08-19T07:19:18;96260.44;;;20.43;100.00
18264;BME280;9258;48.668;9.172;2022-08-19T07:22:20;96267.53;;;20.48;100.00
18264;BME280;9258;48.668;9.172;2022-08-19T07:25:22;96264.09;;;20.47;100.00
18264;BME280;9258;48.668;9.172;2022-08-19T07:28:24;96270.19;;;20.48;100.00
18264;BME280;9258;48.668;9.172;2022-08-19T07:31:27;96274.63;;;20.39;100.00
18264;BME280;9258;48.668;9.172;2022-08-19T07:34:30;96275.00;;;20.32;100.00
18264;BME280;9258;48.668;9.172;2022-08-19T07:37:37;96275.41;;;20.39;100.00
18264;BME280;9258;48.668;9.172;2022-08-19T07:40:44;96275.41;;;20.39;100.00
18264;BME280;9258;48.668;9.172;2022-08-19T07:43:47;96273.72;;;20.43;100.00
18264;BME280;9258;48.668;9.172;2022-08-19T07:46:53;96271.56;;;20.45;100.00
18264;BME280;9258;48.668;9.172;2022-08-19T07:49:56;96279.94;;;20.39;100.00
18264;BME280;9258;48.668;9.172;2022-08-19T07:52:57;96278.44;;;20.46;100.00
18264;BME280;9258;48.668;9.172;2022-08-19T07:55:59;96272.84;;;20.48;100.00
18264;BME280;9258;48.668;9.172;2022-08-19T07:59:03;96280.22;;;20.37;100.00
18264;BME280;9258;48.668;9.172;2022-08-19T08:02:07;96276.00;;;20.36;100.00
18264;BME280;9258;48.668;9.172;2022-08-19T08:05:10;96268.72;;;20.28;100.00
18264;BME280;9258;48.668;9.172;2022-08-19T08:08:31;96278.34;;;20.24;100.00
18264;BME280;9258;48.668;9.172;2022-08-19T08:11:52;96283.25;;;20.17;100.00
18264;BME280;9258;48.668;9.172;2022-08-19T08:14:56;96287.47;;;20.18;100.00
18264;BME280;9258;48.668;9.172;2022-08-19T08:17:59;96290.25;;;20.13;100.00
18264;BME280;9258;48.668;9.172;2022-08-19T08:21:01;96296.16;;;20.10;100.00
18264;BME280;9258;48.668;9.172;2022-08-19T08:24:03;96291.13;;;20.08;100.00
18264;BME280;9258;48.668;9.172;2022-08-19T08:27:05;96296.53;;;19.90;100.00
18264;BME280;9258;48.668;9.172;2022-08-19T08:30:07;96299.78;;;19.87;100.00
18264;BME280;9258;48.668;9.172;2022-08-19T08:33:11;96286.50;;;19.87;100.00
18264;BME280;9258;48.668;9.172;2022-08-19T08:36:13;96288.28;;;19.91;100.00
18264;BME280;9258;48.668;9.172;2022-08-19T08:39:16;96284.72;;;19.96;100.00
18264;BME280;9258;48.668;9.172;2022-08-19T08:42:24;96289.38;;;20.04;100.00
18264;BME280;9258;48.668;9.172;2022-08-19T08:45:28;96288.25;;;20.05;100.00
18264;BME280;9258;48.668;9.172;2022-08-19T08:48:37;96286.91;;;20.07;100.00
18264;BME280;9258;48.668;9.172;2022-08-19T08:51:42;96294.97;;;20.16;100.00
18264;BME280;9258;48.668;9.172;2022-08-19T08:54:47;96287.59;;;20.13;100.00
18264;BME280;9258;48.668;9.172;2022-08-19T08:57:52;96294.00;;;20.12;100.00
18264;BME280;9258;48.668;9.172;2022-08-19T09:00:54;96295.56;;;20.13;100.00
18264;BME280;9258;48.668;9.172;2022-08-19T09:03:58;96293.69;;;20.13;100.00
18264;BME280;9258;48.668;9.172;2022-08-19T09:07:18;96295.94;;;20.20;100.00
18264;BME280;9258;48.668;9.172;2022-08-19T09:10:28;96301.47;;;20.24;100.00
18264;BME280;9258;48.668;9.172;2022-08-19T09:13:35;96310.09;;;20.29;100.00
18264;BME280;9258;48.668;9.172;2022-08-19T09:16:42;96303.25;;;20.28;100.00
18264;BME280;9258;48.668;9.172;2022-08-19T09:19:51;96304.41;;;20.22;100.00
18264;BME280;9258;48.668;9.172;2022-08-19T09:22:53;96305.50;;;20.21;100.00
18264;BME280;9258;48.668;9.172;2022-08-19T09:25:54;96308.25;;;20.16;100.00
18264;BME280;9258;48.668;9.172;2022-08-19T09:28:56;96309.50;;;20.19;100.00
18264;BME280;9258;48.668;9.172;2022-08-19T09:31:58;96313.94;;;20.23;100.00
18264;BME280;9258;48.668;9.172;2022-08-19T09:35:01;96310.59;;;20.18;100.00
18264;BME280;9258;48.668;9.172;2022-08-19T09:38:02;96311.38;;;20.18;100.00
18264;BME280;9258;48.668;9.172;2022-08-19T09:41:05;96310.78;;;20.21;100.00
18264;BME280;9258;48.668;9.172;2022-08-19T09:44:07;96314.94;;;20.13;100.00
18264;BME280;9258;48.668;9.172;2022-08-19T09:47:10;96321.31;;;20.12;100.00
18264;BME280;9258;48.668;9.172;2022-08-19T09:50:13;96312.78;;;20.16;100.00
18264;BME280;9258;48.668;9.172;2022-08-19T09:53:15;96321.22;;;20.18;100.00
18264;BME280;9258;48.668;9.172;2022-08-19T09:56:18;96319.84;;;20.20;100.00
18264;BME280;9258;48.668;9.172;2022-08-19T09:59:20;96320.03;;;20.24;100.00
18264;BME280;9258;48.668;9.172;2022-08-19T10:02:21;96318.69;;;20.26;100.00
18264;BME280;9258;48.668;9.172;2022-08-19T10:05:24;96320.94;;;20.33;100.00
18264;BME280;9258;48.668;9.172;2022-08-19T10:08:45;96319.50;;;20.40;100.00
18264;BME280;9258;48.668;9.172;2022-08-19T10:11:46;96320.75;;;20.43;100.00
18264;BME280;9258;48.668;9.172;2022-08-19T10:14:50;96321.34;;;20.40;100.00
18264;BME280;9258;48.668;9.172;2022-08-19T10:17:53;96322.16;;;20.40;100.00
18264;BME280;9258;48.668;9.172;2022-08-19T10:21:05;96329.63;;;20.38;100.00
18264;BME280;9258;48.668;9.172;2022-08-19T10:24:08;96322.91;;;20.41;100.00
18264;BME280;9258;48.668;9.172;2022-08-19T10:27:10;96335.09;;;20.42;100.00
18264;BME280;9258;48.668;9.172;2022-08-19T10:30:13;96329.41;;;20.48;100.00
18264;BME280;9258;48.668;9.172;2022-08-19T10:33:14;96323.69;;;20.55;100.00
18264;BME280;9258;48.668;9.172;2022-08-19T10:36:20;96322.09;;;20.54;100.00
18264;BME280;9258;48.668;9.172;2022-08-19T10:39:22;96326.75;;;20.62;100.00
18264;BME280;9258;48.668;9.172;2022-08-19T10:42:25;96322.09;;;20.68;100.00
18264;BME280;9258;48.668;9.172;2022-08-19T10:45:27;96320.50;;;20.80;100.00
18264;BME280;9258;48.668;9.172;2022-08-19T10:48:29;96321.75;;;20.97;100.00
18264;BME280;9258;48.668;9.172;2022-08-19T10:51:32;96317.56;;;21.04;100.00
18264;BME280;9258;48.668;9.172;2022-08-19T10:54:51;96312.16;;;21.09;100.00
18264;BME280;9258;48.668;9.172;2022-08-19T10:58:11;96319.81;;;21.25;100.00
18264;BME280;9258;48.668;9.172;2022-08-19T11:01:13;96314.34;;;21.30;100.00
18264;BME280;9258;48.668;9.172;2022-08-19T11:04:15;96317.59;;;21.27;100.00
18264;BME280;9258;48.668;9.172;2022-08-19T11:07:19;96316.03;;;21.26;100.00
18264;BME280;9258;48.668;9.172;2022-08-19T11:10:21;96318.34;;;21.18;100.00
18264;BME280;9258;48.668;9.172;2022-08-19T11:13:23;96315.16;;;21.16;100.00
18264;BME280;9258;48.668;9.172;2022-08-19T11:16:26;96314.22;;;21.12;100.00
18264;BME280;9258;48.668;9.172;2022-08-19T11:19:30;96302.94;;;21.15;100.00
18264;BME280;9258;48.668;9.172;2022-08-19T11:22:33;96308.56;;;21.14;100.00
18264;BME280;9258;48.668;9.172;2022-08-19T11:25:38;96314.81;;;21.09;100.00
18264;BME280;9258;48.668;9.172;2022-08-19T11:28:40;96312.97;;;20.96;100.00
18264;BME280;9258;48.668;9.172;2022-08-19T11:31:43;96315.94;;;20.95;100.00
18264;BME280;9258;48.668;9.172;2022-08-19T11:34:45;96314.66;;;20.92;100.00
18264;BME280;9258;48.668;9.172;2022-08-19T11:37:48;96318.59;;;20.95;100.00
18264;BME280;9258;48.668;9.172;2022-08-19T11:40:55;96317.69;;;20.99;100.00
18264;BME280;9258;48.668;9.172;2022-08-19T11:43:56;96311.47;;;21.04;100.00
18264;BME280;9258;48.668;9.172;2022-08-19T11:46:58;96318.56;;;21.08;100.00
18264;BME280;9258;48.668;9.172;2022-08-19T11:50:00;96309.69;;;21.13;100.00
18264;BME280;9258;48.668;9.172;2022-08-19T11:53:03;96316.97;;;21.21;100.00
18264;BME280;9258;48.668;9.172;2022-08-19T11:56:06;96305.78;;;21.33;100.00
18264;BME280;9258;48.668;9.172;2022-08-19T11:59:09;96307.88;;;21.44;100.00
18264;BME280;9258;48.668;9.172;2022-08-19T12:02:10;96304.09;;;21.68;100.00
18264;BME280;9258;48.668;9.172;2022-08-19T12:05:12;96297.44;;;21.79;100.00
18264;BME280;9258;48.668;9.172;2022-08-19T12:08:15;96306.69;;;21.81;100.00
18264;BME280;9258;48.668;9.172;2022-08-19T12:11:18;96313.19;;;21.67;100.00
18264;BME280;9258;48.668;9.172;2022-08-19T12:14:19;96309.78;;;21.75;100.00
18264;BME280;9258;48.668;9.172;2022-08-19T12:17:21;96318.84;;;21.74;100.00
18264;BME280;9258;48.668;9.172;2022-08-19T12:20:23;96309.47;;;21.76;100.00
18264;BME280;9258;48.668;9.172;2022-08-19T12:23:27;96316.06;;;21.79;100.00
18264;BME280;9258;48.668;9.172;2022-08-19T12:26:29;96315.34;;;21.65;100.00
18264;BME280;9258;48.668;9.172;2022-08-19T12:29:31;96314.44;;;21.69;100.00
18264;BME280;9258;48.668;9.172;2022-08-19T12:32:33;96305.28;;;21.53;100.00
18264;BME280;9258;48.668;9.172;2022-08-19T12:35:38;96310.91;;;21.51;100.00
18264;BME280;9258;48.668;9.172;2022-08-19T12:38:42;96305.03;;;21.41;100.00
18264;BME280;9258;48.668;9.172;2022-08-19T12:41:44;96306.97;;;21.27;100.00
18264;BME280;9258;48.668;9.172;2022-08-19T12:44:46;96315.44;;;21.29;100.00
18264;BME280;9258;48.668;9.172;2022-08-19T12:47:47;96304.63;;;21.25;100.00
18264;BME280;9258;48.668;9.172;2022-08-19T12:50:49;96310.72;;;21.26;100.00
18264;BME280;9258;48.668;9.172;2022-08-19T12:53:52;96320.91;;;21.24;100.00
18264;BME280;9258;48.668;9.172;2022-08-19T12:56:54;96311.94;;;21.19;100.00
18264;BME280;9258;48.668;9.172;2022-08-19T12:59:55;96318.75;;;21.12;100.00
18264;BME280;9258;48.668;9.172;2022-08-19T13:02:57;96316.53;;;21.14;100.00
18264;BME280;9258;48.668;9.172;2022-08-19T13:05:58;96322.34;;;21.16;100.00
18264;BME280;9258;48.668;9.172;2022-08-19T13:09:01;96322.00;;;21.09;100.00
18264;BME280;9258;48.668;9.172;2022-08-19T13:12:04;96313.34;;;21.03;100.00
18264;BME280;9258;48.668;9.172;2022-08-19T13:15:08;96324.72;;;21.17;100.00
18264;BME280;9258;48.668;9.172;2022-08-19T13:18:11;96323.44;;;21.15;100.00
18264;BME280;9258;48.668;9.172;2022-08-19T13:21:13;96324.47;;;21.05;100.00
18264;BME280;9258;48.668;9.172;2022-08-19T13:24:17;96327.72;;;21.02;100.00
18264;BME280;9258;48.668;9.172;2022-08-19T13:27:19;96320.47;;;21.16;100.00
18264;BME280;9258;48.668;9.172;2022-08-19T13:30:21;96322.63;;;21.28;100.00
18264;BME280;9258;48.668;9.172;2022-08-19T13:33:41;96319.97;;;21.28;100.00
18264;BME280;9258;48.668;9.172;2022-08-19T13:36:42;96328.47;;;21.16;100.00
18264;BME280;9258;48.668;9.172;2022-08-19T13:39:47;96334.00;;;21.06;100.00
18264;BME280;9258;48.668;9.172;2022-08-19T13:42:50;96333.00;;;21.16;100.00
18264;BME280;9258;48.668;9.172;2022-08-19T13:45:53;96339.69;;;21.13;100.00
18264;BME280;9258;48.668;9.172;2022-08-19T13:48:56;96336.03;;;21.01;100.00
18264;BME280;9258;48.668;9.172;2022-08-19T13:51:58;96329.53;;;20.79;100.00
18264;BME280;9258;48.668;9.172;2022-08-19T13:55:01;96329.75;;;20.83;100.00
18264;BME280;9258;48.668;9.172;2022-08-19T13:58:03;96329.38;;;20.76;100.00
18264;BME280;9258;48.668;9.172;2022-08-19T14:01:05;96329.38;;;20.76;100.00
18264;BME280;9258;48.668;9.172;2022-08-19T14:04:07;96333.13;;;20.75;100.00
18264;BME280;9258;48.668;9.172;2022-08-19T14:07:09;96338.03;;;20.68;100.00
18264;BME280;9258;48.668;9.172;2022-08-19T14:10:12;96337.97;;;20.59;100.00
18264;BME280;9258;48.668;9.172;2022-08-19T14:13:19;96330.69;;;20.51;100.00
18264;BME280;9258;48.668;9.172;2022-08-19T14:16:21;96336.78;;;20.52;100.00
18264;BME280;9258;48.668;9.172;2022-08-19T14:19:27;96342.56;;;20.54;100.00
18264;BME280;9258;48.668;9.172;2022-08-19T14:22:28;96343.38;;;20.54;100.00
18264;BME280;9258;48.668;9.172;2022-08-19T14:25:32;96354.28;;;20.66;100.00
18264;BME280;9258;48.668;9.172;2022-08-19T14:28:34;96358.63;;;20.62;100.00
18264;BME280;9258;48.668;9.172;2022-08-19T14:31:36;96351.34;;;20.54;100.00
18264;BME280;9258;48.668;9.172;2022-08-19T14:34:39;96351.44;;;20.63;100.00
18264;BME280;9258;48.668;9.172;2022-08-19T14:37:42;96339.25;;;20.48;100.00
18264;BME280;9258;48.668;9.172;2022-08-19T14:40:46;96338.66;;;20.51;100.00
18264;BME280;9258;48.668;9.172;2022-08-19T14:43:50;96343.06;;;20.56;100.00
18264;BME280;9258;48.668;9.172;2022-08-19T14:46:52;96334.28;;;20.69;100.00
18264;BME280;9258;48.668;9.172;2022-08-19T14:49:54;96329.25;;;20.81;100.00
18264;BME280;9258;48.668;9.172;2022-08-19T14:53:03;96324.19;;;20.93;100.00
18264;BME280;9258;48.668;9.172;2022-08-19T14:56:13;96326.56;;;20.95;100.00
18264;BME280;9258;48.668;9.172;2022-08-19T14:59:15;96324.75;;;21.04;100.00
18264;BME280;9258;48.668;9.172;2022-08-19T15:02:17;96317.03;;;21.16;100.00
18264;BME280;9258;48.668;9.172;2022-08-19T15:05:20;96326.81;;;21.43;100.00
18264;BME280;9258;48.668;9.172;2022-08-19T15:08:22;96322.75;;;21.45;100.00
18264;BME280;9258;48.668;9.172;2022-08-19T15:11:27;96327.53;;;21.35;100.00
18264;BME280;9258;48.668;9.172;2022-08-19T15:14:29;96321.75;;;21.33;100.00
18264;BME280;9258;48.668;9.172;2022-08-19T15:17:34;96321.53;;;21.29;100.00
18264;BME280;9258;48.668;9.172;2022-08-19T15:20:39;96320.28;;;21.27;100.00
18264;BME280;9258;48.668;9.172;2022-08-19T15:23:41;96315.94;;;21.31;100.00
18264;BME280;9258;48.668;9.172;2022-08-19T15:26:44;96320.28;;;21.49;100.00
18264;BME280;9258;48.668;9.172;2022-08-19T15:29:46;96317.69;;;21.58;100.00
18264;BME280;9258;48.668;9.172;2022-08-19T15:32:48;96321.97;;;21.45;100.00
18264;BME280;9258;48.668;9.172;2022-08-19T15:35:50;96320.06;;;21.68;100.00
18264;BME280;9258;48.668;9.172;2022-08-19T15:38:53;96324.66;;;21.76;100.00
18264;BME280;9258;48.668;9.172;2022-08-19T15:41:56;96321.50;;;21.74;100.00
18264;BME280;9258;48.668;9.172;2022-08-19T15:45:00;96322.19;;;21.79;100.00
18264;BME280;9258;48.668;9.172;2022-08-19T15:48:04;96322.81;;;22.07;100.00
18264;BME280;9258;48.668;9.172;2022-08-19T15:51:06;96315.50;;;21.90;100.00
18264;BME280;9258;48.668;9.172;2022-08-19T15:54:10;96322.22;;;21.88;100.00
18264;BME280;9258;48.668;9.172;2022-08-19T15:57:13;96319.03;;;21.77;100.00
18264;BME280;9258;48.668;9.172;2022-08-19T16:00:33;96321.84;;;21.72;100.00
18264;BME280;9258;48.668;9.172;2022-08-19T16:04:03;96326.91;;;21.82;100.00
18264;BME280;9258;48.668;9.172;2022-08-19T16:07:37;96321.94;;;21.98;100.00
18264;BME280;9258;48.668;9.172;2022-08-19T16:10:41;96326.16;;;21.90;100.00
18264;BME280;9258;48.668;9.172;2022-08-19T16:13:44;96326.22;;;21.99;100.00